Time;durP1;ratioP1;P1;durP2;ratioP2;P2;SDS_P1;SDS_P2;PMS_P1;PMS_P2;Temp;Humidity;BMP_temperature;BMP_pressure;BME280_temperature;BME280_humidity;BME280_pressure;Samples;Min_cycle;Max_cycle;Signal;HPM_P1;HPM_P2
2021/01/23 00:02:09;;;;;;;16.52;9.88;;;;;;;2.81;100.00;93761.06;5008372;28;20048;-44
2021/01/23 00:04:36;;;;;;;15.38;9.35;;;;;;;2.69;100.00;93741.59;5007234;28;20404;-44
2021/01/23 00:07:04;;;;;;;16.13;9.63;;;;;;;2.64;100.00;93752.47;5005449;28;20513;-46
2021/01/23 00:09:31;;;;;;;16.45;10.32;;;;;;;2.60;100.00;93749.38;5001646;28;20042;-46
2021/01/23 00:11:58;;;;;;;17.77;10.27;;;;;;;2.59;100.00;93760.75;5005376;28;20320;-46
2021/01/23 00:14:25;;;;;;;16.60;10.32;;;;;;;2.54;100.00;93760.41;5006407;28;20041;-43
2021/01/23 00:16:52;;;;;;;16.85;10.15;;;;;;;2.49;100.00;93759.31;5005576;28;20125;-45
2021/01/23 00:19:19;;;;;;;18.85;9.05;;;;;;;2.54;100.00;93760.41;5002510;28;20527;-43
2021/01/23 00:21:46;;;;;;;14.80;8.98;;;;;;;2.41;100.00;93752.31;5010274;28;20128;-49
2021/01/23 00:24:14;;;;;;;17.98;10.50;;;;;;;2.33;100.00;93750.50;5004166;28;20452;-47
2021/01/23 00:26:42;;;;;;;16.67;11.00;;;;;;;2.36;100.00;93759.78;5008270;28;20487;-45
2021/01/23 00:29:10;;;;;;;15.95;10.18;;;;;;;2.43;100.00;93770.34;5003817;28;20045;-45
2021/01/23 00:31:37;;;;;;;16.33;10.65;;;;;;;2.41;100.00;93777.47;5008900;28;20056;-45
2021/01/23 00:34:04;;;;;;;17.80;10.90;;;;;;;2.41;100.00;93793.91;5004903;28;20053;-46
2021/01/23 00:36:31;;;;;;;19.77;10.35;;;;;;;2.54;100.00;93809.03;5011081;28;20133;-43
2021/01/23 00:38:58;;;;;;;17.80;11.85;;;;;;;2.57;100.00;93819.13;5008907;28;20571;-43
2021/01/23 00:41:26;;;;;;;19.70;12.40;;;;;;;2.56;100.00;93823.50;5008612;28;20046;-44
2021/01/23 00:43:56;;;;;;;20.55;12.20;;;;;;;2.49;100.00;93821.72;5003809;28;20141;-43
2021/01/23 00:46:23;;;;;;;20.77;12.93;;;;;;;2.40;100.00;93839.06;5005364;28;20038;-42
2021/01/23 00:48:50;;;;;;;17.60;11.68;;;;;;;2.46;100.00;93846.25;5001288;28;20126;-45
2021/01/23 00:51:17;;;;;;;16.95;11.75;;;;;;;2.49;100.00;93858.94;5000849;28;20113;-44
2021/01/23 00:53:45;;;;;;;22.08;10.40;;;;;;;2.56;100.00;93861.72;4997018;28;20051;-43
2021/01/23 00:56:38;;;;;;;20.55;11.57;;;;;;;2.58;100.00;93859.75;5000303;28;20474;-44
2021/01/23 00:59:06;;;;;;;17.27;11.25;;;;;;;2.64;100.00;93869.53;5002036;28;20119;-43
2021/01/23 01:01:33;;;;;;;16.60;10.00;;;;;;;2.67;100.00;93874.41;5000133;28;20125;-46
2021/01/23 01:04:02;;;;;;;17.67;10.98;;;;;;;2.69;100.00;93871.66;5008686;28;20419;-43
2021/01/23 01:06:30;;;;;;;19.58;11.38;;;;;;;2.66;100.00;93871.97;5000059;28;20588;-45
2021/01/23 01:08:57;;;;;;;10.15;6.15;;;;;;;2.58;100.00;93873.59;5003308;28;20125;-43
2021/01/23 01:11:24;;;;;;;17.42;8.80;;;;;;;2.66;100.00;93885.00;4999348;28;20543;-43
2021/01/23 01:13:51;;;;;;;19.85;11.98;;;;;;;2.67;100.00;93891.81;5007038;28;20605;-48
2021/01/23 01:16:18;;;;;;;21.63;11.20;;;;;;;2.65;100.00;93893.75;5003427;28;20057;-46
2021/01/23 01:18:45;;;;;;;17.73;11.35;;;;;;;2.71;100.00;93904.31;5004723;28;20050;-47
2021/01/23 01:21:12;;;;;;;23.83;12.23;;;;;;;2.75;100.00;93902.22;5002485;28;20060;-45
2021/01/23 01:23:39;;;;;;;19.33;10.63;;;;;;;2.71;100.00;93906.94;5004728;28;20108;-42
2021/01/23 01:26:06;;;;;;;19.67;10.40;;;;;;;2.69;100.00;93915.88;5006020;28;20449;-48
2021/01/23 01:28:33;;;;;;;13.40;7.90;;;;;;;2.79;100.00;93924.38;5008821;28;20042;-45
2021/01/23 01:31:01;;;;;;;15.55;10.02;;;;;;;2.71;100.00;93930.34;5004483;28;20049;-46
2021/01/23 01:33:29;;;;;;;20.10;10.35;;;;;;;2.75;100.00;93941.25;5006940;28;20046;-45
2021/01/23 01:35:56;;;;;;;16.25;10.77;;;;;;;2.83;100.00;93947.28;5010773;28;20568;-45
2021/01/23 01:38:23;;;;;;;19.02;11.18;;;;;;;2.86;100.00;93953.97;5005951;28;20084;-44
2021/01/23 01:40:51;;;;;;;13.68;7.88;;;;;;;2.92;100.00;93957.72;5004980;28;20517;-45
2021/01/23 01:43:18;;;;;;;16.60;8.52;;;;;;;2.93;100.00;93962.78;5005199;28;20049;-43
2021/01/23 01:45:45;;;;;;;16.52;9.18;;;;;;;2.92;100.00;93958.53;5008933;28;20412;-47
2021/01/23 01:48:14;;;;;;;21.77;13.00;;;;;;;2.95;100.00;93973.00;5003167;28;20101;-48
2021/01/23 01:50:41;;;;;;;15.50;9.68;;;;;;;3.03;100.00;93981.66;5001992;28;20051;-43
2021/01/23 01:53:08;;;;;;;13.52;7.50;;;;;;;3.02;100.00;93974.00;5003369;28;20038;-42
2021/01/23 01:55:36;;;;;;;19.33;11.68;;;;;;;2.99;100.00;93984.72;5003964;28;20042;-44
2021/01/23 01:58:03;;;;;;;15.52;8.88;;;;;;;2.99;100.00;94000.34;5005250;28;20390;-44
2021/01/23 02:00:31;;;;;;;14.80;9.85;;;;;;;3.05;100.00;94008.34;5007620;28;20060;-43
2021/01/23 02:03:14;;;;;;;16.27;9.48;;;;;;;3.04;100.00;94014.53;5006585;28;20084;-44
2021/01/23 02:05:46;;;;;;;17.50;12.20;;;;;;;3.02;100.00;94000.84;5005165;28;20127;-43
2021/01/23 02:08:22;;;;;;;22.67;13.18;;;;;;;3.09;100.00;94017.44;4998141;28;20128;-43
2021/01/23 02:10:56;;;;;;;17.05;10.20;;;;;;;3.01;100.00;94020.03;5002947;28;20046;-45
2021/01/23 02:13:26;;;;;;;17.05;9.23;;;;;;;2.98;100.00;94016.94;4997585;28;20046;-45
2021/01/23 02:15:58;;;;;;;20.92;12.65;;;;;;;2.98;100.00;94028.16;5004882;28;20108;-43
2021/01/23 02:18:30;;;;;;;15.02;9.05;;;;;;;3.01;100.00;94053.88;4990965;28;20525;-45
2021/01/23 02:21:21;;;;;;;18.08;10.88;;;;;;;3.01;100.00;94058.28;5007005;28;20053;-46
2021/01/23 02:23:47;;;;;;;13.20;9.65;;;;;;;3.07;100.00;94066.28;5000826;28;20074;-46
2021/01/23 02:26:18;;;;;;;20.88;11.98;;;;;;;3.04;100.00;94063.97;5002867;28;20532;-45
2021/01/23 02:28:55;;;;;;;12.48;8.10;;;;;;;2.96;100.00;94074.38;5003966;28;20042;-46
2021/01/23 02:31:26;;;;;;;7.03;4.25;;;;;;;2.87;100.00;94067.50;5007882;28;20038;-43
2021/01/23 02:33:53;;;;;;;;;;;;;;;2.83;100.00;94092.22;5005142;28;20053;-44
2021/01/23 02:36:21;;;;;;;4.80;2.88;;;;;;;2.56;100.00;94093.22;5008455;28;19949;-43
2021/01/23 02:38:48;;;;;;;4.95;2.60;;;;;;;2.43;100.00;94118.81;5005740;28;20073;-44
2021/01/23 02:41:16;;;;;;;3.53;2.30;;;;;;;2.27;100.00;94132.50;5007347;28;20069;-43
2021/01/23 02:43:44;;;;;;;4.22;2.50;;;;;;;2.17;100.00;94121.38;5005509;28;20061;-46
2021/01/23 02:46:12;;;;;;;3.83;2.90;;;;;;;2.06;100.00;94135.44;5004751;28;20058;-43
2021/01/23 02:48:40;;;;;;;2.80;1.85;;;;;;;1.87;100.00;94142.44;5000784;28;20053;-42
2021/01/23 02:51:11;;;;;;;1.88;1.45;;;;;;;1.71;100.00;94146.66;5004839;28;20092;-44
2021/01/23 02:53:39;;;;;;;2.58;1.73;;;;;;;1.62;100.00;94159.59;5007357;28;20050;-43
2021/01/23 02:56:13;;;;;;;3.30;1.80;;;;;;;1.62;100.00;94161.38;5004984;28;20048;-44
2021/01/23 02:58:42;;;;;;;2.63;1.63;;;;;;;1.58;100.00;94162.59;5007121;28;20459;-43
2021/01/23 03:01:09;;;;;;;3.00;1.98;;;;;;;1.51;100.00;94162.38;5001162;28;20042;-48
2021/01/23 03:03:36;;;;;;;2.60;1.45;;;;;;;1.47;100.00;94171.41;5007771;28;20056;-45
2021/01/23 03:06:06;;;;;;;1.08;0.90;;;;;;;1.41;100.00;94174.59;5006806;28;20046;-43
2021/01/23 03:08:33;;;;;;;2.80;1.95;;;;;;;1.41;100.00;94190.16;5008856;28;20042;-45
2021/01/23 03:11:00;;;;;;;2.42;1.55;;;;;;;1.34;100.00;94199.50;5007169;28;20054;-43
2021/01/23 03:13:27;;;;;;;1.80;1.15;;;;;;;1.26;100.00;94200.22;5001661;28;20046;-43
2021/01/23 03:15:54;;;;;;;1.83;1.25;;;;;;;1.25;100.00;94197.78;5001691;28;20112;-43
2021/01/23 03:18:20;;;;;;;1.65;1.25;;;;;;;1.16;100.00;94189.88;5006640;28;20115;-44
2021/01/23 03:20:48;;;;;;;2.22;1.25;;;;;;;1.13;100.00;94210.09;5005265;28;20057;-43
2021/01/23 03:23:15;;;;;;;2.22;1.60;;;;;;;1.12;100.00;94237.84;5010606;28;20050;-44
2021/01/23 03:25:42;;;;;;;1.63;1.33;;;;;;;1.17;100.00;94258.16;5008488;28;20037;-42
2021/01/23 03:28:10;;;;;;;1.80;1.15;;;;;;;1.14;100.00;94267.09;5011465;28;20038;-43
2021/01/23 03:30:36;;;;;;;2.20;1.13;;;;;;;1.15;100.00;94278.28;5003037;28;20104;-42
2021/01/23 03:33:04;;;;;;;1.85;1.52;;;;;;;1.14;100.00;94290.44;5007491;28;20069;-44
2021/01/23 03:35:30;;;;;;;0.63;0.60;;;;;;;1.13;100.00;94290.56;5009201;28;20522;-43
2021/01/23 03:37:58;;;;;;;1.67;0.85;;;;;;;1.10;100.00;94296.03;5009232;28;20157;-43
2021/01/23 03:40:27;;;;;;;1.30;0.75;;;;;;;1.06;100.00;94292.09;5004828;28;20050;-43
2021/01/23 03:42:54;;;;;;;1.83;1.10;;;;;;;1.06;100.00;94300.69;5009330;28;20042;-43
2021/01/23 03:45:21;;;;;;;1.30;1.20;;;;;;;1.01;100.00;94304.69;5011364;28;20046;-43
2021/01/23 03:47:48;;;;;;;0.68;0.60;;;;;;;1.00;100.00;94309.06;5001687;28;20051;-44
2021/01/23 03:50:15;;;;;;;2.00;1.17;;;;;;;1.02;100.00;94320.09;5001268;28;20469;-42
2021/01/23 03:52:42;;;;;;;2.55;0.98;;;;;;;1.01;100.00;94335.81;5005798;28;20103;-43
2021/01/23 03:55:10;;;;;;;1.55;1.27;;;;;;;1.02;100.00;94340.03;5008226;28;20100;-44
2021/01/23 03:57:38;;;;;;;1.73;1.55;;;;;;;1.01;100.00;94351.38;5007864;28;20122;-44
2021/01/23 04:00:07;;;;;;;1.33;1.13;;;;;;;0.99;100.00;94353.28;5010626;28;20108;-43
2021/01/23 04:02:35;;;;;;;1.13;1.02;;;;;;;0.98;100.00;94359.44;5008534;28;20038;-43
2021/01/23 04:05:04;;;;;;;1.02;0.68;;;;;;;0.98;100.00;94367.22;5002456;28;20048;-43
2021/01/23 04:07:30;;;;;;;1.95;1.23;;;;;;;1.04;100.00;94364.09;5008352;28;20042;-43
2021/01/23 04:09:58;;;;;;;2.15;1.58;;;;;;;0.99;100.00;94335.13;5005109;28;20428;-43
2021/01/23 04:12:30;;;;;;;1.75;0.90;;;;;;;1.00;100.00;94363.53;5008545;28;20060;-43
2021/01/23 04:14:58;;;;;;;1.10;0.93;;;;;;;0.98;100.00;94349.06;5006282;28;20050;-44
2021/01/23 04:17:25;;;;;;;1.02;0.70;;;;;;;1.03;100.00;94357.22;5007966;28;20038;-44
2021/01/23 04:19:52;;;;;;;0.60;0.50;;;;;;;1.06;100.00;94350.00;5004261;28;20481;-45
2021/01/23 04:22:19;;;;;;;0.60;0.60;;;;;;;1.05;100.00;94350.13;5005832;28;20129;-45
2021/01/23 04:24:46;;;;;;;1.00;0.80;;;;;;;0.94;100.00;94344.16;5005437;28;20065;-42
2021/01/23 04:27:13;;;;;;;0.50;0.50;;;;;;;0.95;100.00;94352.75;5003236;28;20070;-47
2021/01/23 04:29:40;;;;;;;0.57;0.50;;;;;;;0.92;100.00;94359.03;5005012;28;20129;-46
2021/01/23 04:32:08;;;;;;;0.50;0.50;;;;;;;0.97;100.00;94374.19;5005273;28;20107;-46
2021/01/23 04:34:36;;;;;;;0.50;0.40;;;;;;;0.92;100.00;94373.78;5005896;28;20056;-43
2021/01/23 04:37:03;;;;;;;0.40;0.40;;;;;;;0.95;100.00;94379.50;5009536;28;20100;-43
2021/01/23 04:39:30;;;;;;;0.50;0.50;;;;;;;0.91;100.00;94372.97;5005901;28;20462;-45
2021/01/23 04:41:57;;;;;;;0.80;0.80;;;;;;;0.91;100.00;94403.28;5010120;28;20042;-45
2021/01/23 04:44:24;;;;;;;0.50;0.50;;;;;;;0.89;100.00;94381.81;5006249;28;20046;-46
2021/01/23 04:46:52;;;;;;;0.32;0.30;;;;;;;1.16;100.00;94383.72;5009613;28;20096;-44
2021/01/23 04:49:20;;;;;;;0.40;0.40;;;;;;;1.12;100.00;94380.59;4997267;28;20538;-42
2021/01/23 04:51:47;;;;;;;0.40;0.40;;;;;;;1.03;100.00;94378.81;5005956;28;20053;-48
2021/01/23 04:54:13;;;;;;;0.40;0.40;;;;;;;1.03;100.00;94396.97;5005203;28;20046;-43
2021/01/23 04:56:41;;;;;;;1.10;0.93;;;;;;;1.05;100.00;94400.25;5005567;28;20042;-45
2021/01/23 04:59:08;;;;;;;0.40;0.40;;;;;;;1.02;100.00;94397.13;5005217;28;20407;-44
2021/01/23 05:01:35;;;;;;;0.70;0.70;;;;;;;0.95;100.00;94392.47;5008635;28;20424;-48
2021/01/23 05:04:03;;;;;;;0.52;0.52;;;;;;;0.94;100.00;94346.75;5003844;28;20408;-47
2021/01/23 05:06:31;;;;;;;0.40;0.40;;;;;;;0.96;100.00;94390.69;5008127;28;20348;-45
2021/01/23 05:08:58;;;;;;;0.70;0.63;;;;;;;0.92;100.00;94379.78;5003451;28;20076;-44
2021/01/23 05:11:46;;;;;;;0.40;0.40;;;;;;;0.91;100.00;94372.13;5006305;28;20052;-46
2021/01/23 05:14:14;;;;;;;0.45;0.45;;;;;;;0.89;100.00;94385.22;4996619;28;20400;-48
2021/01/23 05:16:41;;;;;;;0.35;0.35;;;;;;;0.92;100.00;94423.88;5006155;28;20104;-48
2021/01/23 05:19:10;;;;;;;0.40;0.40;;;;;;;0.92;100.00;94423.06;5007501;28;20046;-44
2021/01/23 05:21:38;;;;;;;1.13;0.50;;;;;;;0.90;100.00;94422.41;5001130;28;20069;-46
2021/01/23 05:24:07;;;;;;;0.32;0.32;;;;;;;0.94;100.00;94439.31;5010195;28;20042;-45
2021/01/23 05:26:34;;;;;;;0.50;0.50;;;;;;;0.92;100.00;94449.81;5004973;28;20042;-44
2021/01/23 05:29:09;;;;;;;0.60;0.60;;;;;;;1.00;100.00;94458.72;5003969;28;20064;-46
2021/01/23 05:31:36;;;;;;;0.45;0.45;;;;;;;0.97;100.00;94457.22;5002753;28;20072;-45
2021/01/23 05:34:28;;;;;;;0.40;0.40;;;;;;;0.93;100.00;94461.88;5006150;28;20050;-47
2021/01/23 05:36:57;;;;;;;0.30;0.30;;;;;;;0.95;100.00;94461.72;5006132;28;20516;-46
2021/01/23 05:39:45;;;;;;;0.50;0.43;;;;;;;0.91;100.00;94476.75;5006757;28;20038;-46
2021/01/23 05:42:12;;;;;;;0.30;0.30;;;;;;;0.92;100.00;94480.16;5000845;28;20045;-48
2021/01/23 05:44:40;;;;;;;0.47;0.30;;;;;;;0.98;100.00;94484.00;5009090;28;20128;-48
2021/01/23 05:47:25;;;;;;;0.50;0.40;;;;;;;1.01;100.00;94492.31;5005258;28;20484;-45
2021/01/23 05:49:53;;;;;;;0.45;0.45;;;;;;;0.99;100.00;94483.03;4999160;28;20070;-44
2021/01/23 05:52:22;;;;;;;0.30;0.30;;;;;;;1.04;100.00;94509.41;5005904;28;20041;-44
2021/01/23 05:54:49;;;;;;;0.70;0.70;;;;;;;1.06;100.00;94503.09;5008574;28;20050;-44
2021/01/23 05:57:16;;;;;;;0.30;0.30;;;;;;;1.07;100.00;94484.00;5005059;28;20054;-46
2021/01/23 05:59:43;;;;;;;0.38;0.38;;;;;;;1.07;100.00;94499.56;5010452;28;20589;-45
2021/01/23 06:02:12;;;;;;;0.50;0.50;;;;;;;1.06;100.00;94494.50;5004624;28;20045;-47
2021/01/23 06:04:42;;;;;;;0.85;0.45;;;;;;;1.12;100.00;94519.91;5001974;28;20056;-45
2021/01/23 06:07:09;;;;;;;0.50;0.50;;;;;;;1.13;100.00;94534.53;4997832;28;20129;-47
2021/01/23 06:09:38;;;;;;;0.40;0.40;;;;;;;1.09;100.00;94533.97;5006250;28;20079;-48
2021/01/23 06:12:26;;;;;;;0.50;0.40;;;;;;;1.13;100.00;94553.50;5007522;28;20046;-49
2021/01/23 06:14:53;;;;;;;0.73;0.68;;;;;;;1.10;100.00;94560.75;5003053;28;20116;-48
2021/01/23 06:17:47;;;;;;;0.70;0.70;;;;;;;1.17;100.00;94556.66;5004977;28;20462;-48
2021/01/23 06:20:48;;;;;;;0.90;0.70;;;;;;;1.16;100.00;94576.59;5003959;28;20129;-44
2021/01/23 06:23:16;;;;;;;0.90;0.70;;;;;;;1.14;100.00;94591.50;5004858;28;20516;-46
2021/01/23 06:26:00;;;;;;;0.98;0.80;;;;;;;1.17;100.00;94580.88;5008272;28;20411;-45
2021/01/23 06:28:55;;;;;;;0.70;0.70;;;;;;;1.17;100.00;94599.03;5001372;28;20046;-49
2021/01/23 06:31:29;;;;;;;0.70;0.70;;;;;;;1.16;100.00;94588.78;5004238;28;20433;-48
2021/01/23 06:33:57;;;;;;;0.60;0.60;;;;;;;1.20;100.00;94595.34;5000818;28;20046;-47
2021/01/23 06:36:24;;;;;;;0.70;0.60;;;;;;;1.19;100.00;94583.31;5003127;28;20050;-44
2021/01/23 06:39:05;;;;;;;0.68;0.68;;;;;;;1.14;100.00;94608.88;4998916;28;20089;-45
2021/01/23 06:41:35;;;;;;;0.60;0.60;;;;;;;1.09;100.00;94617.03;5012491;28;20084;-45
2021/01/23 06:44:15;;;;;;;1.75;0.90;;;;;;;1.05;100.00;94626.03;5010442;28;20042;-50
2021/01/23 06:46:58;;;;;;;0.88;0.75;;;;;;;1.01;100.00;94627.25;5009571;28;20104;-47
2021/01/23 06:49:26;;;;;;;1.75;0.88;;;;;;;1.02;100.00;94625.50;5011089;28;20111;-45
2021/01/23 06:52:06;;;;;;;0.68;0.65;;;;;;;1.02;100.00;94635.88;5013021;28;20092;-47
2021/01/23 06:54:34;;;;;;;1.25;1.05;;;;;;;1.00;100.00;94642.94;5012691;28;20060;-46
2021/01/23 06:57:03;;;;;;;1.77;1.10;;;;;;;1.01;100.00;94642.00;5018527;28;20115;-43
2021/01/23 06:59:31;;;;;;;0.73;0.70;;;;;;;1.00;100.00;94649.00;5016372;28;20049;-46
2021/01/23 07:02:00;;;;;;;1.30;1.02;;;;;;;1.05;100.00;94649.41;5019125;28;20405;-45
2021/01/23 07:04:29;;;;;;;0.57;0.55;;;;;;;1.03;100.00;94647.88;5017932;28;20042;-42
2021/01/23 07:06:57;;;;;;;1.45;0.98;;;;;;;1.06;100.00;94652.81;5007725;28;20111;-45
2021/01/23 07:09:46;;;;;;;1.10;0.90;;;;;;;1.10;100.00;94661.97;5002209;28;20073;-45
2021/01/23 07:12:34;;;;;;;2.08;1.50;;;;;;;1.16;100.00;94669.25;5005207;28;20065;-46
2021/01/23 07:15:02;;;;;;;1.33;1.00;;;;;;;1.11;100.00;94659.25;5012845;28;20069;-47
2021/01/23 07:17:29;;;;;;;2.55;1.45;;;;;;;1.14;100.00;94684.97;5013508;28;20115;-43
2021/01/23 07:19:56;;;;;;;1.55;1.20;;;;;;;1.17;100.00;94686.44;5013385;28;20471;-44
2021/01/23 07:22:23;;;;;;;1.90;1.60;;;;;;;1.18;100.00;94686.34;5015916;28;20038;-47
2021/01/23 07:24:51;;;;;;;1.83;1.50;;;;;;;1.22;100.00;94699.88;5011145;28;20069;-44
2021/01/23 07:27:17;;;;;;;1.73;1.20;;;;;;;1.21;100.00;94692.22;5011636;28;20042;-49
2021/01/23 07:29:49;;;;;;;1.50;1.20;;;;;;;1.22;100.00;94706.84;5005697;28;20045;-48
2021/01/23 07:32:16;;;;;;;1.20;1.00;;;;;;;1.29;100.00;94710.56;5007593;28;20045;-45
2021/01/23 07:34:53;;;;;;;1.42;0.70;;;;;;;1.31;100.00;94699.09;5002112;28;20110;-45
2021/01/23 07:37:42;;;;;;;1.65;1.17;;;;;;;1.36;100.00;94709.06;5008061;28;20054;-44
2021/01/23 07:40:11;;;;;;;1.10;0.82;;;;;;;1.28;100.00;94711.53;5002444;28;20105;-44
2021/01/23 07:42:38;;;;;;;1.45;1.05;;;;;;;1.32;100.00;94718.09;5005070;28;20042;-44
2021/01/23 07:45:10;;;;;;;0.88;0.75;;;;;;;1.35;100.00;94704.84;5012896;28;20080;-47
2021/01/23 07:47:38;;;;;;;0.90;0.80;;;;;;;1.50;100.00;94724.28;5002208;28;20045;-47
2021/01/23 07:50:07;;;;;;;1.00;0.90;;;;;;;1.46;100.00;94730.69;5007342;28;20038;-50
2021/01/23 07:52:34;;;;;;;0.82;0.80;;;;;;;1.39;100.00;94724.41;5000079;28;20104;-45
2021/01/23 07:55:01;;;;;;;1.95;1.30;;;;;;;1.45;100.00;94739.47;5009052;28;20046;-46
2021/01/23 07:57:29;;;;;;;2.20;1.90;;;;;;;1.52;100.00;94727.59;5003080;28;20069;-47
2021/01/23 07:59:56;;;;;;;1.23;1.02;;;;;;;1.40;100.00;94726.84;5016615;28;20042;-46
2021/01/23 08:02:24;;;;;;;1.05;0.95;;;;;;;1.50;100.00;94731.25;5001573;28;20053;-48
2021/01/23 08:04:52;;;;;;;1.60;1.30;;;;;;;1.42;100.00;94724.13;5003447;28;20133;-44
2021/01/23 08:07:25;;;;;;;1.92;1.40;;;;;;;1.48;100.00;94731.41;5004384;28;20116;-48
2021/01/23 08:10:07;;;;;;;1.45;1.15;;;;;;;1.63;100.00;94740.47;5006729;28;20053;-46
2021/01/23 08:12:34;;;;;;;1.92;1.27;;;;;;;1.54;100.00;94751.63;4997453;28;20054;-45
2021/01/23 08:15:02;;;;;;;1.38;1.27;;;;;;;1.58;100.00;94757.38;5015996;28;20041;-47
2021/01/23 08:17:44;;;;;;;1.85;1.30;;;;;;;1.66;100.00;94760.97;5012441;28;20064;-45
2021/01/23 08:20:12;;;;;;;1.33;0.93;;;;;;;1.71;100.00;94754.56;5016308;28;20389;-47
2021/01/23 08:23:05;;;;;;;1.63;1.30;;;;;;;1.48;100.00;94749.59;5011465;28;20049;-46
2021/01/23 08:25:34;;;;;;;2.05;1.65;;;;;;;1.51;100.00;94753.66;5016163;28;20121;-46
2021/01/23 08:28:01;;;;;;;2.33;1.23;;;;;;;1.38;100.00;94752.16;5011904;28;20033;-48
2021/01/23 08:30:28;;;;;;;1.75;1.42;;;;;;;1.51;100.00;94756.28;5004559;28;20053;-49
2021/01/23 08:32:56;;;;;;;2.97;1.70;;;;;;;1.53;100.00;94755.19;5011997;28;20566;-46
2021/01/23 08:35:24;;;;;;;1.63;1.30;;;;;;;1.55;100.00;94760.25;5008607;28;20045;-44
2021/01/23 08:37:51;;;;;;;2.25;1.63;;;;;;;1.55;100.00;94757.66;5005800;28;20050;-47
2021/01/23 08:40:20;;;;;;;2.65;2.00;;;;;;;1.56;100.00;94756.72;5005628;28;20045;-46
2021/01/23 08:42:47;;;;;;;2.10;1.88;;;;;;;1.59;100.00;94756.47;5006949;28;20040;-46
2021/01/23 08:45:15;;;;;;;1.95;1.38;;;;;;;1.49;100.00;94756.41;5004316;28;20048;-49
2021/01/23 08:47:42;;;;;;;2.30;1.67;;;;;;;1.54;100.00;94753.41;5013661;28;20224;-45
2021/01/23 08:50:11;;;;;;;2.75;1.90;;;;;;;1.54;100.00;94743.84;5006070;28;20041;-43
2021/01/23 08:52:37;;;;;;;3.05;1.73;;;;;;;1.65;100.00;94751.56;5006761;28;20136;-47
2021/01/23 08:55:06;;;;;;;1.38;1.15;;;;;;;1.54;100.00;94751.63;5001921;28;20073;-46
2021/01/23 08:57:33;;;;;;;3.88;2.55;;;;;;;1.66;100.00;94758.38;5005331;28;20085;-45
2021/01/23 09:00:00;;;;;;;1.65;1.15;;;;;;;1.62;100.00;94746.63;5013300;28;20088;-45
2021/01/23 09:02:28;;;;;;;2.72;1.73;;;;;;;1.85;100.00;94743.78;5003989;28;20629;-47
2021/01/23 09:04:55;;;;;;;3.03;2.05;;;;;;;1.85;100.00;94751.59;4996260;28;20046;-46
2021/01/23 09:07:23;;;;;;;3.58;2.55;;;;;;;1.84;100.00;94748.16;4993695;28;20436;-45
2021/01/23 09:09:50;;;;;;;2.25;1.65;;;;;;;1.90;100.00;94752.03;4997548;28;20438;-44
2021/01/23 09:12:17;;;;;;;3.03;1.98;;;;;;;1.85;100.00;94747.19;5002111;28;20061;-44
2021/01/23 09:14:44;;;;;;;2.90;1.88;;;;;;;2.12;100.00;94741.38;5000008;28;20120;-44
2021/01/23 09:17:11;;;;;;;4.10;1.92;;;;;;;2.26;100.00;94731.53;5006342;28;20038;-43
2021/01/23 09:19:38;;;;;;;5.35;2.70;;;;;;;2.32;100.00;94733.59;4999989;28;20056;-46
2021/01/23 09:22:05;;;;;;;3.60;2.58;;;;;;;2.52;100.00;94737.81;5003805;28;20042;-43
2021/01/23 09:24:32;;;;;;;3.92;2.72;;;;;;;2.74;100.00;94730.69;5005945;28;20583;-44
2021/01/23 09:26:59;;;;;;;2.65;2.13;;;;;;;2.81;100.00;94731.75;5009039;28;20058;-45
2021/01/23 09:29:26;;;;;;;4.00;2.67;;;;;;;2.80;100.00;94735.31;4998253;28;20037;-44
2021/01/23 09:31:53;;;;;;;2.83;2.28;;;;;;;2.92;100.00;94735.97;5000733;28;20184;-45
2021/01/23 09:34:20;;;;;;;1.60;1.23;;;;;;;3.05;100.00;94736.50;5004943;28;20521;-44
2021/01/23 09:36:47;;;;;;;3.53;2.30;;;;;;;2.81;100.00;94745.59;5003391;28;20070;-46
2021/01/23 09:39:14;;;;;;;3.15;2.05;;;;;;;2.87;100.00;94748.59;5005489;28;20099;-48
2021/01/23 09:41:42;;;;;;;2.75;2.08;;;;;;;3.02;100.00;94750.63;5002470;28;20101;-45
2021/01/23 09:44:09;;;;;;;2.10;1.63;;;;;;;3.02;100.00;94739.38;5005426;28;20034;-44
2021/01/23 09:46:36;;;;;;;2.83;1.50;;;;;;;3.03;100.00;94741.03;5005168;28;20038;-44
2021/01/23 09:49:03;;;;;;;2.55;1.50;;;;;;;3.21;99.60;94751.53;5003917;28;20520;-46
2021/01/23 09:51:30;;;;;;;3.33;2.13;;;;;;;3.38;97.93;94737.78;5003074;28;20061;-49
2021/01/23 09:53:57;;;;;;;2.97;2.03;;;;;;;3.29;97.85;94749.84;5005536;28;20582;-46
2021/01/23 09:56:24;;;;;;;3.10;2.35;;;;;;;3.55;97.60;94744.84;5000927;28;20045;-49
2021/01/23 09:58:51;;;;;;;3.03;2.38;;;;;;;3.55;96.42;94747.44;4998736;28;20050;-45
2021/01/23 10:01:20;;;;;;;4.90;2.35;;;;;;;3.77;94.54;94746.22;5001009;28;20575;-46
2021/01/23 10:03:47;;;;;;;2.35;1.65;;;;;;;3.47;93.29;94739.50;5005556;28;20045;-46
2021/01/23 10:06:13;;;;;;;4.30;2.75;;;;;;;4.25;92.82;94734.66;4996544;28;20455;-49
2021/01/23 10:08:40;;;;;;;3.78;2.83;;;;;;;4.08;92.50;94737.28;5004422;28;20129;-45
2021/01/23 10:11:08;;;;;;;3.72;2.63;;;;;;;3.99;92.12;94744.19;4997313;28;20078;-45
2021/01/23 10:14:00;;;;;;;76.50;49.15;;;;;;;3.98;92.95;94740.75;5002316;28;20046;-48
2021/01/23 10:16:27;;;;;;;4.57;2.85;;;;;;;3.89;91.86;94743.41;4999616;28;20038;-46
2021/01/23 10:18:55;;;;;;;5.15;2.80;;;;;;;3.75;93.32;94745.56;5008891;28;20065;-44
2021/01/23 10:21:22;;;;;;;3.30;2.30;;;;;;;3.74;93.26;94740.47;5012530;28;20111;-43
2021/01/23 10:23:49;;;;;;;3.75;2.47;;;;;;;3.60;93.10;94739.19;5014868;28;20050;-46
2021/01/23 10:26:16;;;;;;;3.45;2.70;;;;;;;3.92;92.30;94736.16;5014533;28;20042;-46
2021/01/23 10:28:43;;;;;;;3.22;2.65;;;;;;;3.81;91.94;94736.31;5010675;28;20038;-45
2021/01/23 10:31:11;;;;;;;3.17;2.15;;;;;;;3.65;92.31;94731.75;5011186;28;20659;-45
2021/01/23 10:33:38;;;;;;;2.97;2.17;;;;;;;3.72;93.80;94726.78;5012278;28;20050;-44
2021/01/23 10:36:06;;;;;;;3.55;2.47;;;;;;;4.03;91.49;94728.09;5016963;28;20034;-45
2021/01/23 10:38:33;;;;;;;2.78;2.30;;;;;;;3.93;92.54;94726.53;5010870;28;20050;-47
2021/01/23 10:41:00;;;;;;;3.75;2.50;;;;;;;3.85;91.69;94721.22;5014214;28;20108;-49
2021/01/23 10:43:26;;;;;;;3.63;2.75;;;;;;;3.66;92.64;94720.34;5010733;28;20034;-44
2021/01/23 10:45:53;;;;;;;3.63;2.42;;;;;;;3.57;92.39;94719.44;5014184;28;20034;-49
2021/01/23 10:48:21;;;;;;;3.25;2.60;;;;;;;3.74;92.14;94714.41;5010853;28;20085;-45
2021/01/23 10:50:48;;;;;;;3.47;1.55;;;;;;;3.65;90.77;94710.06;5015589;28;20049;-46
2021/01/23 10:53:17;;;;;;;4.57;2.45;;;;;;;3.89;90.43;94707.75;5012050;28;20045;-47
2021/01/23 10:55:44;;;;;;;3.15;2.30;;;;;;;4.10;90.01;94717.91;5013247;28;20076;-45
2021/01/23 10:58:12;;;;;;;3.88;2.65;;;;;;;4.53;88.72;94701.47;5012696;28;20065;-45
2021/01/23 11:00:39;;;;;;;2.85;2.17;;;;;;;4.47;86.85;94699.50;5013870;28;20118;-47
2021/01/23 11:03:06;;;;;;;4.13;2.30;;;;;;;4.44;87.28;94691.97;5012612;28;20056;-49
2021/01/23 11:05:34;;;;;;;3.35;2.00;;;;;;;4.58;85.74;94687.19;5013178;28;20046;-46
2021/01/23 11:08:01;;;;;;;2.47;1.67;;;;;;;4.12;86.74;94689.06;5014023;28;20053;-45
2021/01/23 11:10:28;;;;;;;2.72;2.20;;;;;;;4.62;85.80;94680.69;5010689;28;20045;-45
2021/01/23 11:12:55;;;;;;;3.25;2.47;;;;;;;4.73;85.65;94685.66;5008261;28;20129;-50
2021/01/23 11:15:22;;;;;;;3.47;2.13;;;;;;;4.13;85.30;94675.03;5011497;28;20084;-48
2021/01/23 11:17:49;;;;;;;4.20;2.55;;;;;;;4.72;86.80;94670.97;5015059;28;20049;-50
2021/01/23 11:20:16;;;;;;;3.40;2.63;;;;;;;4.76;85.49;94673.09;5009971;28;20041;-46
2021/01/23 11:22:44;;;;;;;2.92;2.30;;;;;;;4.45;85.76;94667.50;5012822;28;20084;-46
2021/01/23 11:25:13;;;;;;;4.45;2.92;;;;;;;4.71;84.66;94669.31;5002682;28;20527;-45
2021/01/23 11:27:40;;;;;;;4.03;2.40;;;;;;;4.46;86.83;94666.53;5014012;28;20037;-49
2021/01/23 11:30:09;;;;;;;4.10;2.70;;;;;;;5.00;85.33;94669.00;5012384;28;20046;-45
2021/01/23 11:32:36;;;;;;;2.60;2.40;;;;;;;5.20;84.82;94659.16;5011602;28;20042;-44
2021/01/23 11:35:04;;;;;;;3.85;2.65;;;;;;;5.19;82.28;94665.34;5008528;28;20491;-49
2021/01/23 11:37:32;;;;;;;4.47;2.63;;;;;;;5.32;82.30;94663.13;5009339;28;20066;-46
2021/01/23 11:40:00;;;;;;;4.03;2.70;;;;;;;5.19;81.10;94660.13;5008240;28;20154;-46
2021/01/23 11:42:27;;;;;;;4.05;2.47;;;;;;;5.37;81.64;94660.88;5009349;28;20052;-48